Time;durP1;ratioP1;P1;durP2;ratioP2;P2;SDS_P1;SDS_P2;PMS_P1;PMS_P2;Temp;Humidity;BMP_temperature;BMP_pressure;BME280_temperature;BME280_humidity;BME280_pressure;Samples;Min_cycle;Max_cycle;Signal;HPM_P1;HPM_P2
2022/09/27 00:00:46;;;;;;;1.60;1.37;;;10.10;99.90;;;;;;5051175;28;20450;-72
2022/09/27 00:03:13;;;;;;;1.70;1.60;;;10.10;99.90;;;;;;5051037;28;20834;-72
2022/09/27 00:05:41;;;;;;;1.93;1.83;;;10.10;99.90;;;;;;5050971;28;20514;-72
2022/09/27 00:08:08;;;;;;;1.73;1.63;;;10.10;99.90;;;;;;5050467;28;20473;-72
2022/09/27 00:10:35;;;;;;;1.70;1.60;;;10.10;99.90;;;;;;5051325;28;21069;-72
2022/09/27 00:13:01;;;;;;;3.57;1.53;;;10.10;99.90;;;;;;5050907;28;20888;-72
2022/09/27 00:15:28;;;;;;;1.90;1.80;;;10.10;99.90;;;;;;5050632;28;20468;-73
2022/09/27 00:17:55;;;;;;;4.00;1.50;;;10.10;99.90;;;;;;5050746;28;20507;-72
2022/09/27 00:20:21;;;;;;;2.20;1.97;;;10.10;99.90;;;;;;5051380;28;20452;-72
2022/09/27 00:22:49;;;;;;;1.77;1.67;;;10.10;99.90;;;;;;5050974;28;20459;-72
2022/09/27 00:25:17;;;;;;;1.50;1.40;;;10.10;99.90;;;;;;5050909;28;20468;-72
2022/09/27 00:27:43;;;;;;;1.73;1.63;;;10.10;99.90;;;;;;5050487;28;20484;-72
2022/09/27 00:30:12;;;;;;;3.20;1.70;;;10.10;99.90;;;;;;5051017;28;20536;-72
2022/09/27 00:32:39;;;;;;;2.40;1.87;;;10.10;99.90;;;;;;5050594;28;20547;-72
2022/09/27 00:35:06;;;;;;;5.50;1.90;;;10.10;99.90;;;;;;5051156;28;20474;-71
2022/09/27 00:37:33;;;;;;;5.83;1.87;;;10.10;99.90;;;;;;5053858;28;20506;-72
2022/09/27 00:40:01;;;;;;;3.50;2.03;;;10.10;99.90;;;;;;5054565;28;20452;-72
2022/09/27 00:42:28;;;;;;;3.20;2.00;;;10.10;99.90;;;;;;5054113;28;20457;-72
2022/09/27 00:45:13;;;;;;;6.20;2.33;;;10.10;99.90;;;;;;5054436;28;20972;-72
2022/09/27 00:47:46;;;;;;;6.77;2.67;;;10.20;99.90;;;;;;5034765;28;20512;-72
2022/09/27 00:50:26;;;;;;;9.80;2.47;;;10.10;99.90;;;;;;5034913;28;20506;-72
2022/09/27 00:53:02;;;;;;;7.17;2.17;;;10.10;99.90;;;;;;5044388;28;20525;-71
2022/09/27 00:55:35;;;;;;;12.03;2.93;;;10.10;99.90;;;;;;5053898;28;20538;-71
2022/09/27 00:58:04;;;;;;;7.07;2.13;;;10.10;99.90;;;;;;5054661;28;20455;-72
2022/09/27 01:00:31;;;;;;;5.93;2.37;;;10.10;99.90;;;;;;5054510;28;20544;-72
2022/09/27 01:02:59;;;;;;;5.00;2.60;;;10.10;99.90;;;;;;5054203;28;20452;-72
2022/09/27 01:05:28;;;;;;;8.13;2.47;;;10.10;99.90;;;;;;5052973;28;20470;-72
2022/09/27 01:07:58;;;;;;;3.50;2.50;;;10.00;99.90;;;;;;5052341;28;20487;-72
2022/09/27 01:10:30;;;;;;;5.80;2.47;;;10.00;99.90;;;;;;5054395;28;20445;-72
2022/09/27 01:13:07;;;;;;;7.60;2.33;;;10.00;99.90;;;;;;5053671;28;20531;-72
2022/09/27 01:15:42;;;;;;;3.83;2.90;;;10.00;99.90;;;;;;5053328;28;20477;-72
2022/09/27 01:18:19;;;;;;;5.10;2.80;;;10.00;99.90;;;;;;5054075;28;20441;-72
2022/09/27 01:21:13;;;;;;;7.93;2.50;;;10.00;99.90;;;;;;5054184;28;20450;-72
2022/09/27 01:24:05;;;;;;;6.87;3.10;;;10.00;99.90;;;;;;5049478;28;20481;-72
2022/09/27 01:26:55;;;;;;;9.50;2.70;;;10.00;99.90;;;;;;5053862;28;20452;-72
2022/09/27 01:29:37;;;;;;;6.60;2.80;;;9.90;99.90;;;;;;5053473;28;20456;-72
2022/09/27 01:32:08;;;;;;;7.33;3.10;;;10.00;99.90;;;;;;5053433;28;20500;-71
2022/09/27 01:34:43;;;;;;;9.03;3.30;;;9.90;99.90;;;;;;5054210;28;20476;-72
2022/09/27 01:37:20;;;;;;;9.93;2.57;;;9.90;99.90;;;;;;5053546;28;20461;-72
2022/09/27 01:39:50;;;;;;;11.40;2.87;;;9.90;99.90;;;;;;5053703;28;20458;-72
2022/09/27 01:42:24;;;;;;;6.93;2.70;;;9.90;99.90;;;;;;5053584;28;20476;-72
2022/09/27 01:44:55;;;;;;;12.90;4.70;;;9.90;99.90;;;;;;5053456;28;20471;-72
2022/09/27 01:47:28;;;;;;;6.43;2.50;;;9.90;99.90;;;;;;5052866;28;20806;-72
2022/09/27 01:50:00;;;;;;;5.80;2.90;;;9.90;99.90;;;;;;5053426;28;20455;-72
2022/09/27 01:52:32;;;;;;;9.30;2.77;;;9.90;99.90;;;;;;5052992;28;20537;-72
2022/09/27 01:55:04;;;;;;;8.37;3.03;;;10.00;99.90;;;;;;5053496;28;20472;-72
2022/09/27 01:57:35;;;;;;;7.83;2.80;;;9.90;99.90;;;;;;5053204;28;20779;-72
2022/09/27 02:00:04;;;;;;;5.90;3.10;;;10.00;99.90;;;;;;5053524;28;20456;-72
2022/09/27 02:02:36;;;;;;;8.23;3.23;;;10.00;99.90;;;;;;5053257;28;20456;-72
2022/09/27 02:05:06;;;;;;;4.23;2.73;;;9.90;99.90;;;;;;5053155;28;20477;-72
2022/09/27 02:07:40;;;;;;;5.00;2.23;;;10.00;99.90;;;;;;5052778;28;20456;-72
2022/09/27 02:10:11;;;;;;;6.27;2.40;;;9.90;99.90;;;;;;5053634;28;20460;-72
2022/09/27 02:12:45;;;;;;;7.70;2.40;;;9.90;99.90;;;;;;5053116;28;20491;-72
2022/09/27 02:15:15;;;;;;;3.83;2.17;;;10.00;99.90;;;;;;5052695;28;20470;-72
2022/09/27 02:17:47;;;;;;;4.63;2.30;;;10.00;99.90;;;;;;5052670;28;20495;-72
2022/09/27 02:20:19;;;;;;;7.40;2.70;;;9.90;99.90;;;;;;5054355;28;20451;-72
2022/09/27 02:22:51;;;;;;;3.17;2.20;;;9.90;99.90;;;;;;5052444;28;20456;-72
2022/09/27 02:25:23;;;;;;;3.90;2.70;;;9.90;99.90;;;;;;5052333;28;20511;-72
2022/09/27 02:27:57;;;;;;;3.40;2.70;;;9.90;99.90;;;;;;5052609;28;20950;-72
2022/09/27 02:30:24;;;;;;;3.77;2.27;;;9.90;99.90;;;;;;5052298;28;20490;-72
2022/09/27 02:32:53;;;;;;;4.10;2.40;;;9.90;99.90;;;;;;5052213;28;20484;-72
2022/09/27 02:35:24;;;;;;;4.47;2.60;;;9.80;99.90;;;;;;5052390;28;20477;-72
2022/09/27 02:37:51;;;;;;;2.83;2.10;;;9.80;99.90;;;;;;5052530;28;20463;-72
2022/09/27 02:40:18;;;;;;;5.80;2.70;;;9.80;99.90;;;;;;5052804;28;20502;-72
2022/09/27 02:42:46;;;;;;;3.53;2.23;;;9.80;99.90;;;;;;5051768;28;20959;-72
2022/09/27 02:45:16;;;;;;;3.23;2.40;;;9.80;99.90;;;;;;5051590;28;20475;-72
2022/09/27 02:48:06;;;;;;;3.90;2.57;;;9.90;99.90;;;;;;5052269;28;20980;-72
2022/09/27 02:50:47;;;;;;;3.13;2.03;;;9.80;99.90;;;;;;5052672;28;20936;-72
2022/09/27 02:53:26;;;;;;;4.70;2.20;;;9.90;99.90;;;;;;5051881;28;20488;-72
2022/09/27 02:56:02;;;;;;;16.47;2.90;;;9.80;99.90;;;;;;5051772;28;20844;-72
2022/09/27 02:58:38;;;;;;;2.30;1.80;;;9.80;99.90;;;;;;5051888;28;20451;-73
2022/09/27 03:01:12;;;;;;;3.67;2.27;;;9.80;99.90;;;;;;5052132;28;20464;-72
2022/09/27 03:03:49;;;;;;;3.90;2.00;;;9.80;99.90;;;;;;5051718;28;20476;-72
2022/09/27 03:06:19;;;;;;;4.80;1.90;;;9.80;99.90;;;;;;5051639;28;20464;-72
2022/09/27 03:08:46;;;;;;;3.13;2.40;;;9.70;99.90;;;;;;5051856;28;20479;-73
2022/09/27 03:11:13;;;;;;;3.00;2.10;;;9.70;99.90;;;;;;5051701;28;20949;-72
2022/09/27 03:13:40;;;;;;;2.43;2.23;;;9.70;99.90;;;;;;5051495;28;20539;-72
2022/09/27 03:16:07;;;;;;;2.73;2.37;;;9.70;99.90;;;;;;5051796;28;20447;-72
2022/09/27 03:18:34;;;;;;;2.43;2.23;;;9.70;99.90;;;;;;5051862;28;20569;-72
2022/09/27 03:21:02;;;;;;;6.80;2.33;;;9.70;99.90;;;;;;5052106;28;20461;-72
2022/09/27 03:23:29;;;;;;;4.13;2.07;;;9.70;99.90;;;;;;5051717;28;20473;-72
2022/09/27 03:25:56;;;;;;;2.90;1.80;;;9.70;99.90;;;;;;5051461;28;20448;-72
2022/09/27 03:28:24;;;;;;;2.47;2.27;;;9.60;99.90;;;;;;5051494;28;20514;-73
2022/09/27 03:30:51;;;;;;;4.27;2.33;;;9.60;99.90;;;;;;5051366;28;20463;-72
2022/09/27 03:33:18;;;;;;;2.83;2.30;;;9.60;99.90;;;;;;5051278;28;20495;-72
2022/09/27 03:35:44;;;;;;;2.33;2.23;;;9.70;99.90;;;;;;5051963;28;20445;-72
2022/09/27 03:38:13;;;;;;;2.67;2.27;;;9.60;99.90;;;;;;5051705;28;20481;-72
2022/09/27 03:40:39;;;;;;;2.57;2.37;;;9.60;99.90;;;;;;5051343;28;20819;-72
2022/09/27 03:43:06;;;;;;;3.83;2.40;;;9.60;99.90;;;;;;5051379;28;20453;-72
2022/09/27 03:45:33;;;;;;;3.20;2.20;;;9.60;99.90;;;;;;5051027;28;20478;-72
2022/09/27 03:47:59;;;;;;;5.53;2.20;;;9.50;99.90;;;;;;5051283;28;20460;-72
2022/09/27 03:50:26;;;;;;;2.20;2.00;;;9.50;99.90;;;;;;5051475;28;20937;-72
2022/09/27 03:52:53;;;;;;;2.10;2.00;;;9.50;99.90;;;;;;5051155;28;20492;-72
2022/09/27 03:55:21;;;;;;;2.33;2.13;;;9.50;99.90;;;;;;5051095;28;20553;-72
2022/09/27 03:57:48;;;;;;;4.20;2.40;;;9.50;99.90;;;;;;5050959;28;20522;-73
2022/09/27 04:00:16;;;;;;;2.40;2.30;;;9.50;99.90;;;;;;5051172;28;20454;-73
2022/09/27 04:02:43;;;;;;;4.40;2.30;;;9.50;99.90;;;;;;5051448;28;20455;-73
2022/09/27 04:05:10;;;;;;;4.23;2.50;;;9.40;99.90;;;;;;5050781;28;20472;-73
2022/09/27 04:07:38;;;;;;;6.67;2.50;;;9.40;99.90;;;;;;5051140;28;20499;-73
2022/09/27 04:10:06;;;;;;;2.20;2.10;;;9.30;99.90;;;;;;5051511;28;20549;-73
2022/09/27 04:12:34;;;;;;;2.20;2.00;;;9.30;99.90;;;;;;5053771;28;20570;-73
2022/09/27 04:15:00;;;;;;;2.40;2.23;;;9.30;99.90;;;;;;5054454;28;20472;-73
2022/09/27 04:17:27;;;;;;;2.47;2.27;;;9.30;99.90;;;;;;5055192;28;20459;-73
2022/09/27 04:19:54;;;;;;;2.80;2.30;;;9.30;99.90;;;;;;5055081;28;20979;-73
2022/09/27 04:22:20;;;;;;;2.33;2.23;;;9.30;99.90;;;;;;5054577;28;20455;-73
2022/09/27 04:24:47;;;;;;;2.43;2.10;;;9.30;99.90;;;;;;5053836;28;20475;-73
2022/09/27 04:27:15;;;;;;;6.37;2.30;;;9.20;99.90;;;;;;5054712;28;20452;-73
2022/09/27 04:29:44;;;;;;;2.37;2.10;;;9.20;99.90;;;;;;5055368;28;20558;-73
2022/09/27 04:32:11;;;;;;;2.50;2.33;;;9.20;99.90;;;;;;5055096;28;20483;-73
2022/09/27 04:37:22;;;;;;;3.50;2.50;;;9.20;99.90;;;;;;5054629;28;20451;-73
2022/09/27 04:39:49;;;;;;;2.50;2.40;;;9.20;99.90;;;;;;5054321;28;20460;-73
2022/09/27 04:42:16;;;;;;;2.37;2.27;;;9.20;99.90;;;;;;5054858;28;20455;-73
2022/09/27 04:44:44;;;;;;;3.33;2.47;;;9.20;99.90;;;;;;5053818;28;20482;-73
2022/09/27 04:47:11;;;;;;;2.70;2.50;;;9.20;99.90;;;;;;5054512;28;20837;-73
2022/09/27 04:49:38;;;;;;;2.90;2.70;;;9.20;99.90;;;;;;5047412;28;20465;-73
2022/09/27 04:52:05;;;;;;;2.20;1.97;;;9.10;99.90;;;;;;5054121;28;20994;-73
2022/09/27 04:54:32;;;;;;;2.40;2.30;;;9.20;99.90;;;;;;5053074;28;20515;-73
2022/09/27 04:56:58;;;;;;;2.70;2.43;;;9.10;99.90;;;;;;5053377;28;20453;-73
2022/09/27 04:59:26;;;;;;;2.70;2.03;;;9.20;99.90;;;;;;5054618;28;20452;-73
2022/09/27 05:01:54;;;;;;;2.13;1.90;;;9.10;99.90;;;;;;5054123;28;20484;-72
2022/09/27 05:04:21;;;;;;;2.53;2.33;;;9.10;99.90;;;;;;5053054;28;20966;-73
2022/09/27 05:06:48;;;;;;;3.00;2.47;;;9.10;99.90;;;;;;5053453;28;20458;-73
2022/09/27 05:09:15;;;;;;;2.43;2.30;;;9.10;99.90;;;;;;5052891;28;20875;-73
2022/09/27 05:11:42;;;;;;;3.40;2.63;;;9.10;99.90;;;;;;5054055;28;20516;-73
2022/09/27 05:14:09;;;;;;;4.67;2.73;;;9.10;99.90;;;;;;5053481;28;20569;-73
2022/09/27 05:16:35;;;;;;;2.90;2.70;;;9.10;99.90;;;;;;5053678;28;20450;-76
2022/09/27 05:19:04;;;;;;;4.07;3.17;;;9.10;99.90;;;;;;5053828;28;20495;-77
2022/09/27 05:21:31;;;;;;;2.80;2.30;;;9.10;99.90;;;;;;5053263;28;20448;-77
2022/09/27 05:23:59;;;;;;;2.63;2.43;;;9.10;99.90;;;;;;5052773;28;20480;-77
2022/09/27 05:26:26;;;;;;;2.90;2.60;;;9.10;99.90;;;;;;5053438;28;20551;-76
2022/09/27 05:28:53;;;;;;;3.00;2.77;;;9.10;99.90;;;;;;5053624;28;20948;-76
2022/09/27 05:31:19;;;;;;;2.40;2.30;;;9.10;99.90;;;;;;5053812;28;20467;-75
2022/09/27 05:33:46;;;;;;;2.90;2.70;;;9.10;99.90;;;;;;5052761;28;20495;-75
2022/09/27 05:36:15;;;;;;;4.50;2.63;;;9.10;99.90;;;;;;5052477;28;20605;-75
2022/09/27 05:38:42;;;;;;;3.03;2.80;;;9.00;99.90;;;;;;5052633;28;20529;-75
2022/09/27 05:41:09;;;;;;;7.63;3.03;;;9.10;99.90;;;;;;5051285;28;20456;-75
2022/09/27 05:43:36;;;;;;;5.63;2.60;;;9.00;99.90;;;;;;5051246;28;20512;-75
2022/09/27 05:46:04;;;;;;;3.03;2.80;;;9.00;99.90;;;;;;5051079;28;20491;-75
2022/09/27 05:48:30;;;;;;;3.17;2.80;;;9.00;99.90;;;;;;5051323;28;20456;-75
2022/09/27 05:50:57;;;;;;;3.60;3.30;;;9.00;99.90;;;;;;5051257;28;20948;-75
2022/09/27 05:53:25;;;;;;;3.63;2.60;;;9.00;99.90;;;;;;5050708;28;20486;-75
2022/09/27 05:55:52;;;;;;;6.80;2.53;;;9.00;99.90;;;;;;5052184;28;20455;-75
2022/09/27 05:58:19;;;;;;;2.70;2.50;;;9.00;99.90;;;;;;5053439;28;20505;-75
2022/09/27 06:00:45;;;;;;;5.20;2.53;;;9.10;99.90;;;;;;5052982;28;20455;-75
2022/09/27 06:03:13;;;;;;;2.67;2.47;;;9.10;99.90;;;;;;5052564;28;20453;-75
2022/09/27 06:05:41;;;;;;;2.20;2.10;;;9.10;99.90;;;;;;5048881;28;20491;-75
2022/09/27 06:08:10;;;;;;;3.07;2.83;;;9.10;99.90;;;;;;5053371;28;20470;-75
2022/09/27 06:10:39;;;;;;;3.00;2.80;;;9.10;99.90;;;;;;5053044;28;20452;-75
2022/09/27 06:13:07;;;;;;;7.57;2.50;;;9.10;99.90;;;;;;5052636;28;20553;-75
2022/09/27 06:15:36;;;;;;;3.03;2.73;;;9.00;99.90;;;;;;5050816;28;20475;-75
2022/09/27 06:18:04;;;;;;;3.20;2.90;;;9.10;99.90;;;;;;5053023;28;20460;-75
2022/09/27 06:20:32;;;;;;;2.90;2.27;;;9.10;99.90;;;;;;5052385;28;20773;-75
2022/09/27 06:23:05;;;;;;;6.20;2.30;;;9.00;99.90;;;;;;5052255;28;20549;-75
2022/09/27 06:25:32;;;;;;;7.23;3.00;;;9.10;99.90;;;;;;5052173;28;20476;-74
2022/09/27 06:28:01;;;;;;;2.57;2.40;;;9.10;99.90;;;;;;5051967;28;20459;-75
2022/09/27 06:30:27;;;;;;;3.07;2.87;;;9.10;99.90;;;;;;5052340;28;20499;-75
2022/09/27 06:32:58;;;;;;;5.73;2.67;;;9.10;99.90;;;;;;5052526;28;20491;-75
2022/09/27 06:35:25;;;;;;;2.80;2.60;;;9.10;99.90;;;;;;5051017;28;20517;-76
2022/09/27 06:37:52;;;;;;;3.50;3.20;;;9.20;99.90;;;;;;5052493;28;20538;-75
2022/09/27 06:40:19;;;;;;;3.23;3.03;;;9.10;99.90;;;;;;5052409;28;20463;-76
2022/09/27 06:42:46;;;;;;;3.00;2.80;;;9.10;99.90;;;;;;5052202;28;20453;-76
2022/09/27 06:45:14;;;;;;;3.50;3.10;;;9.20;99.90;;;;;;5051674;28;20468;-76
2022/09/27 06:47:41;;;;;;;4.20;3.47;;;9.20;99.90;;;;;;5052117;28;20459;-76
2022/09/27 06:50:09;;;;;;;3.87;3.47;;;9.20;99.90;;;;;;5052292;28;20450;-75
2022/09/27 06:52:36;;;;;;;12.50;4.07;;;9.20;99.90;;;;;;5050752;28;20457;-76
2022/09/27 06:55:04;;;;;;;4.57;4.00;;;9.20;99.90;;;;;;5050625;28;21018;-75
2022/09/27 07:00:26;;;;;;;3.50;3.20;;;9.30;99.90;;;;;;5045388;28;20447;-76
2022/09/27 07:02:59;;;;;;;3.87;3.57;;;9.30;99.90;;;;;;5051392;28;20519;-74
2022/09/27 07:05:27;;;;;;;5.53;4.27;;;9.30;99.90;;;;;;5051690;28;20476;-74
2022/09/27 07:07:56;;;;;;;3.93;3.20;;;9.30;99.90;;;;;;5051708;28;20578;-75
2022/09/27 07:10:24;;;;;;;4.03;3.17;;;9.30;99.90;;;;;;5052287;28;20462;-75
2022/09/27 07:12:51;;;;;;;5.67;4.20;;;9.30;99.90;;;;;;5052179;28;20487;-76
2022/09/27 07:15:20;;;;;;;8.80;5.20;;;9.20;99.90;;;;;;5051201;28;20481;-76
2022/09/27 07:17:47;;;;;;;9.03;3.77;;;9.20;99.90;;;;;;5051842;28;20494;-77
2022/09/27 07:20:14;;;;;;;6.73;3.60;;;9.20;99.90;;;;;;5051906;28;20450;-77
2022/09/27 07:22:44;;;;;;;4.23;3.40;;;9.20;99.90;;;;;;5051842;28;20457;-77
2022/09/27 07:25:10;;;;;;;3.40;3.10;;;9.20;99.90;;;;;;5055565;28;20480;-78
2022/09/27 07:27:40;;;;;;;4.50;3.70;;;9.20;99.90;;;;;;5057658;28;20451;-79
2022/09/27 07:30:07;;;;;;;13.70;3.67;;;9.30;99.90;;;;;;5057781;28;20562;-78
2022/09/27 07:32:36;;;;;;;8.10;3.30;;;9.30;99.90;;;;;;5057132;28;20451;-79
2022/09/27 07:35:04;;;;;;;8.00;4.37;;;9.30;99.90;;;;;;5056951;28;21036;-78
2022/09/27 07:37:32;;;;;;;7.00;4.83;;;9.40;99.90;;;;;;5055869;28;20452;-79
2022/09/27 07:39:59;;;;;;;4.23;3.10;;;9.50;99.90;;;;;;5056438;28;20949;-77
2022/09/27 07:42:27;;;;;;;3.63;3.30;;;9.50;99.90;;;;;;5054097;28;20482;-78
2022/09/27 07:44:54;;;;;;;4.57;2.60;;;9.60;99.90;;;;;;5055464;28;20976;-77
2022/09/27 07:47:22;;;;;;;4.03;2.93;;;9.60;99.90;;;;;;5051378;28;20465;-76
2022/09/27 07:49:51;;;;;;;4.70;2.83;;;9.70;99.90;;;;;;5054359;28;20493;-78
2022/09/27 07:52:18;;;;;;;3.50;2.60;;;9.70;99.90;;;;;;5054518;28;20448;-78
2022/09/27 07:54:45;;;;;;;6.07;2.97;;;9.60;99.90;;;;;;5052892;28;20575;-78
2022/09/27 07:57:12;;;;;;;3.67;2.57;;;9.60;99.90;;;;;;5055370;28;20460;-79
2022/09/27 07:59:39;;;;;;;2.83;2.53;;;9.60;99.90;;;;;;5054359;28;20880;-81
2022/09/27 08:02:06;;;;;;;5.10;2.73;;;9.60;99.90;;;;;;5056096;28;20462;-81
2022/09/27 08:04:33;;;;;;;3.77;2.50;;;9.60;99.90;;;;;;5056152;28;20498;-81
2022/09/27 08:07:01;;;;;;;2.80;2.47;;;9.60;99.90;;;;;;5055762;28;20459;-81
2022/09/27 08:09:28;;;;;;;5.97;2.70;;;9.60;99.90;;;;;;5056895;28;20450;-82
2022/09/27 08:11:57;;;;;;;3.23;2.60;;;9.60;99.90;;;;;;5056667;28;20530;-82
2022/09/27 08:14:24;;;;;;;3.20;2.17;;;9.70;99.90;;;;;;5056936;28;20488;-81
2022/09/27 08:16:51;;;;;;;4.83;2.43;;;9.70;99.90;;;;;;5056981;28;20459;-81
2022/09/27 08:19:18;;;;;;;3.47;2.33;;;9.80;99.90;;;;;;5058933;28;21026;-82
2022/09/27 08:21:45;;;;;;;5.70;2.57;;;9.70;99.90;;;;;;5057824;28;20466;-80
2022/09/27 08:24:13;;;;;;;6.87;2.63;;;9.70;99.90;;;;;;5056844;28;20560;-80
2022/09/27 08:26:40;;;;;;;2.43;2.20;;;9.70;99.90;;;;;;5058200;28;20450;-82
2022/09/27 08:29:06;;;;;;;5.53;2.30;;;9.70;99.90;;;;;;5059390;28;20462;-82
2022/09/27 08:31:33;;;;;;;12.93;2.90;;;9.70;99.90;;;;;;5058819;28;20452;-82
2022/09/27 08:34:00;;;;;;;4.33;2.47;;;9.60;99.90;;;;;;5055728;28;20492;-82
2022/09/27 08:36:27;;;;;;;3.30;2.50;;;9.60;99.90;;;;;;5057027;28;20522;-78
2022/09/27 08:38:57;;;;;;;5.10;2.20;;;9.60;99.90;;;;;;5047247;28;20459;-78
2022/09/27 08:41:37;;;;;;;5.60;2.13;;;9.60;99.90;;;;;;5051634;28;20457;-78
2022/09/27 08:44:15;;;;;;;6.03;2.20;;;9.70;99.90;;;;;;5051845;28;20991;-78
2022/09/27 08:46:52;;;;;;;2.53;2.27;;;9.60;99.90;;;;;;5051381;28;20454;-77
2022/09/27 08:49:24;;;;;;;3.67;2.60;;;9.60;99.90;;;;;;5044934;28;20517;-78
2022/09/27 08:51:52;;;;;;;4.97;3.20;;;9.60;99.90;;;;;;5054603;28;20483;-79
2022/09/27 08:54:23;;;;;;;14.40;8.20;;;9.70;99.90;;;;;;5055249;28;20496;-79
2022/09/27 08:56:53;;;;;;;4.87;2.67;;;9.80;99.90;;;;;;5054750;28;20846;-80
2022/09/27 08:59:23;;;;;;;8.47;2.23;;;9.90;99.90;;;;;;5058676;28;20456;-79
2022/09/27 09:01:52;;;;;;;4.83;2.30;;;10.00;99.90;;;;;;5058652;28;20506;-80
2022/09/27 09:04:28;;;;;;;3.03;2.53;;;10.20;99.90;;;;;;5058502;28;20460;-79
2022/09/27 09:07:05;;;;;;;7.10;2.47;;;10.30;99.90;;;;;;5058121;28;20453;-78
2022/09/27 09:09:39;;;;;;;2.97;2.17;;;10.50;99.90;;;;;;5035726;28;21003;-81
2022/09/27 09:15:20;;;;;;;5.37;2.80;;;10.70;99.90;;;;;;5052304;28;20630;-77
2022/09/27 09:18:16;;;;;;;7.70;2.90;;;10.80;99.90;;;;;;5051196;28;20452;-77
2022/09/27 09:20:55;;;;;;;2.90;2.10;;;10.80;99.90;;;;;;5055144;28;20452;-80
2022/09/27 09:23:52;;;;;;;11.23;2.40;;;10.80;99.90;;;;;;5059240;28;20452;-80
2022/09/27 09:26:28;;;;;;;7.03;3.50;;;10.70;99.90;;;;;;5058418;28;20967;-79
2022/09/27 09:29:07;;;;;;;7.73;4.00;;;10.70;99.90;;;;;;5058780;28;20452;-80
2022/09/27 09:31:42;;;;;;;3.03;2.83;;;10.70;99.90;;;;;;5058738;28;20455;-80
2022/09/27 09:34:14;;;;;;;7.97;4.43;;;10.70;99.90;;;;;;5058738;28;20496;-80
2022/09/27 09:36:45;;;;;;;3.97;2.70;;;10.70;99.90;;;;;;5057935;28;20502;-80
2022/09/27 09:39:16;;;;;;;5.47;2.20;;;10.80;99.90;;;;;;5058991;28;20804;-80
2022/09/27 09:41:54;;;;;;;3.20;2.00;;;10.60;99.90;;;;;;5059259;28;20449;-79
2022/09/27 09:44:27;;;;;;;3.23;1.73;;;10.60;99.90;;;;;;5059132;28;20473;-79
2022/09/27 09:46:58;;;;;;;3.97;1.93;;;10.60;99.90;;;;;;5058594;28;20856;-79
2022/09/27 09:49:30;;;;;;;4.30;1.80;;;10.60;99.90;;;;;;5058263;28;20456;-79
2022/09/27 09:52:02;;;;;;;4.00;1.87;;;10.70;99.90;;;;;;5058229;28;20461;-78
2022/09/27 09:54:33;;;;;;;4.30;1.60;;;10.80;99.90;;;;;;5058671;28;20519;-78
2022/09/27 09:57:07;;;;;;;4.43;2.03;;;10.80;99.90;;;;;;5056825;28;20466;-77
2022/09/27 09:59:42;;;;;;;3.63;2.00;;;10.90;99.90;;;;;;5055089;28;20459;-79
2022/09/27 10:02:21;;;;;;;1.87;1.70;;;10.80;99.90;;;;;;5058228;28;20448;-79
2022/09/27 10:04:48;;;;;;;3.00;1.50;;;10.80;99.90;;;;;;5057493;28;20509;-78
2022/09/27 10:07:19;;;;;;;2.53;2.00;;;10.80;99.90;;;;;;5056773;28;20457;-76
2022/09/27 10:09:46;;;;;;;4.57;1.80;;;10.90;99.90;;;;;;5052925;28;20444;-77
2022/09/27 10:12:13;;;;;;;6.03;1.90;;;10.90;99.90;;;;;;5053529;28;20513;-77
2022/09/27 10:14:42;;;;;;;2.13;1.60;;;10.90;99.90;;;;;;5056651;28;20485;-81
2022/09/27 10:17:14;;;;;;;3.57;1.60;;;10.90;99.90;;;;;;5059005;28;20451;-81
2022/09/27 10:19:42;;;;;;;2.53;1.60;;;10.90;99.90;;;;;;5059635;28;20484;-82
2022/09/27 10:22:15;;;;;;;1.97;1.83;;;10.90;99.90;;;;;;5061091;28;20457;-84
2022/09/27 10:24:54;;;;;;;6.40;1.93;;;10.90;99.90;;;;;;5060613;28;20469;-74
2022/09/27 10:27:22;;;;;;;3.23;1.40;;;10.80;99.90;;;;;;5058066;28;20454;-79
2022/09/27 10:29:56;;;;;;;4.40;2.20;;;10.80;99.90;;;;;;5057881;28;21012;-79
2022/09/27 10:32:29;;;;;;;6.20;1.83;;;10.80;99.90;;;;;;5058644;28;20990;-80
2022/09/27 10:34:56;;;;;;;3.67;1.93;;;10.90;99.90;;;;;;5058263;28;20579;-80
2022/09/27 10:37:23;;;;;;;1.80;1.70;;;10.90;99.90;;;;;;5058289;28;20462;-79
2022/09/27 10:39:52;;;;;;;3.27;1.70;;;10.80;99.90;;;;;;5057772;28;20467;-81
2022/09/27 10:42:32;;;;;;;2.27;1.40;;;10.80;99.90;;;;;;5058771;28;20483;-82
2022/09/27 10:45:22;;;;;;;1.80;1.40;;;10.80;99.90;;;;;;5058041;28;20467;-81
2022/09/27 10:47:49;;;;;;;2.47;1.73;;;10.90;99.90;;;;;;5057339;28;20457;-81
2022/09/27 10:50:18;;;;;;;6.03;2.13;;;10.90;99.90;;;;;;5057462;28;20456;-81
2022/09/27 10:52:44;;;;;;;4.07;2.70;;;10.80;99.90;;;;;;5057770;28;20457;-81
2022/09/27 10:55:21;;;;;;;4.50;2.00;;;10.80;99.90;;;;;;5055656;28;20496;-81
2022/09/27 10:57:50;;;;;;;3.20;1.97;;;10.80;99.90;;;;;;5053015;28;20452;-81
2022/09/27 11:00:24;;;;;;;4.50;1.60;;;10.80;99.90;;;;;;5058175;28;20459;-81
2022/09/27 11:02:54;;;;;;;5.47;1.80;;;10.80;99.90;;;;;;5057649;28;20506;-78
2022/09/27 11:05:32;;;;;;;4.90;1.90;;;10.90;99.90;;;;;;5058013;28;20483;-79
2022/09/27 11:08:01;;;;;;;3.37;1.83;;;11.10;99.90;;;;;;5057184;28;20451;-80
2022/09/27 11:10:31;;;;;;;4.40;1.60;;;11.10;99.90;;;;;;5058092;28;20464;-79
2022/09/27 11:13:13;;;;;;;4.30;1.90;;;11.20;99.90;;;;;;5057351;28;20487;-79
2022/09/27 11:15:55;;;;;;;2.80;1.53;;;11.20;99.90;;;;;;5056762;28;20544;-79
2022/09/27 11:18:31;;;;;;;1.77;1.67;;;11.30;99.90;;;;;;5058011;28;20452;-79
2022/09/27 11:21:07;;;;;;;5.30;1.90;;;11.40;99.90;;;;;;5056487;28;20461;-80
2022/09/27 11:23:56;;;;;;;5.13;1.60;;;11.40;99.90;;;;;;5056778;28;20568;-79
2022/09/27 11:26:36;;;;;;;5.00;1.90;;;11.40;99.90;;;;;;5055303;28;20457;-80
2022/09/27 11:29:18;;;;;;;3.63;1.67;;;11.60;99.90;;;;;;5055933;28;20463;-80
2022/09/27 11:32:01;;;;;;;2.10;1.67;;;11.70;99.90;;;;;;5057026;28;20540;-79
2022/09/27 11:34:53;;;;;;;4.90;1.40;;;11.90;99.90;;;;;;5058270;28;20923;-79
2022/09/27 11:37:27;;;;;;;3.07;2.30;;;11.90;99.90;;;;;;5057968;28;20484;-79
2022/09/27 11:40:12;;;;;;;2.30;1.40;;;12.20;99.90;;;;;;5057696;28;20452;-79
2022/09/27 11:43:15;;;;;;;1.40;1.20;;;12.30;99.90;;;;;;5057827;28;20449;-79
2022/09/27 11:45:53;;;;;;;1.50;1.40;;;12.30;99.90;;;;;;5019521;28;21012;-74
2022/09/27 11:48:38;;;;;;;1.30;1.20;;;12.60;99.90;;;;;;5053541;28;20477;-79
2022/09/27 11:51:18;;;;;;;1.40;1.30;;;13.10;99.90;;;;;;5056645;28;20479;-79
2022/09/27 11:54:10;;;;;;;1.70;1.30;;;13.60;99.90;;;;;;5036617;28;21317;-79
2022/09/27 11:56:47;;;;;;;1.30;1.20;;;14.00;99.90;;;;;;5050752;28;20457;-80
2022/09/27 11:59:38;;;;;;;1.83;1.20;;;14.10;99.90;;;;;;5036338;28;20450;-81
2022/09/27 12:02:22;;;;;;;1.40;1.30;;;14.30;99.90;;;;;;5037201;28;21023;-81
2022/09/27 12:05:02;;;;;;;1.97;1.60;;;14.20;99.90;;;;;;5055643;28;20461;-76
2022/09/27 12:07:37;;;;;;;1.40;1.30;;;14.20;99.90;;;;;;5051505;28;20850;-77
2022/09/27 12:10:09;;;;;;;1.97;1.37;;;14.00;99.90;;;;;;5052719;28;20450;-77
2022/09/27 12:12:39;;;;;;;1.43;1.23;;;13.50;99.90;;;;;;5054052;28;20499;-79
2022/09/27 12:15:15;;;;;;;1.30;1.20;;;13.20;99.90;;;;;;5053551;28;20491;-78
2022/09/27 12:17:44;;;;;;;1.53;1.23;;;13.10;99.90;;;;;;5051798;28;20468;-77
2022/09/27 12:20:19;;;;;;;1.77;1.37;;;12.80;99.90;;;;;;5053288;28;20445;-78
2022/09/27 12:22:54;;;;;;;4.07;2.33;;;12.80;99.90;;;;;;5053127;28;20506;-79
2022/09/27 12:25:23;;;;;;;1.70;1.60;;;12.80;99.90;;;;;;5052809;28;20467;-78
2022/09/27 12:27:53;;;;;;;9.17;1.77;;;12.70;99.90;;;;;;5053565;28;20446;-80
2022/09/27 12:30:20;;;;;;;1.30;1.20;;;12.60;99.90;;;;;;5058381;28;20960;-80
2022/09/27 12:32:53;;;;;;;1.43;1.30;;;12.60;99.90;;;;;;5058859;28;20450;-80
2022/09/27 12:35:24;;;;;;;2.80;1.40;;;12.80;99.90;;;;;;5060000;28;20493;-80
2022/09/27 12:37:58;;;;;;;1.50;1.40;;;12.90;99.90;;;;;;5061865;28;20466;-81
2022/09/27 12:40:28;;;;;;;3.07;1.20;;;12.90;99.90;;;;;;5066048;28;20453;-80
2022/09/27 12:43:00;;;;;;;2.00;1.30;;;12.90;99.90;;;;;;5061578;28;20447;-79
2022/09/27 12:45:37;;;;;;;1.37;1.27;;;13.00;99.90;;;;;;5059458;28;20471;-80
2022/09/27 12:48:11;;;;;;;1.30;1.20;;;13.10;99.90;;;;;;5059451;28;20466;-79
2022/09/27 12:50:43;;;;;;;2.90;1.60;;;13.30;99.90;;;;;;5061662;28;20459;-79
2022/09/27 12:53:17;;;;;;;2.60;1.43;;;13.50;99.90;;;;;;5063190;28;20454;-80
2022/09/27 12:56:12;;;;;;;1.20;1.10;;;13.80;99.90;;;;;;5058863;28;20887;-77
2022/09/27 12:58:55;;;;;;;3.20;1.40;;;14.10;99.90;;;;;;5055377;28;21042;-75
2022/09/27 13:01:36;;;;;;;1.43;1.33;;;14.00;99.90;;;;;;5058684;28;20929;-79
2022/09/27 13:04:23;;;;;;;1.87;1.40;;;13.90;99.90;;;;;;5058835;28;20473;-80
2022/09/27 13:07:16;;;;;;;2.93;1.77;;;13.70;99.90;;;;;;5059807;28;20453;-81
2022/09/27 13:10:01;;;;;;;2.50;1.70;;;13.60;99.90;;;;;;5055557;28;20450;-77
2022/09/27 13:12:30;;;;;;;1.40;1.30;;;13.60;99.90;;;;;;5055698;28;20506;-77
2022/09/27 13:15:02;;;;;;;3.40;1.50;;;13.70;99.90;;;;;;5055437;28;20490;-77
2022/09/27 13:17:36;;;;;;;1.90;1.80;;;13.60;99.90;;;;;;5054577;28;20456;-76
2022/09/27 13:20:38;;;;;;;1.57;1.47;;;13.50;99.90;;;;;;5055459;28;20460;-77
2022/09/27 13:23:43;;;;;;;1.60;1.50;;;13.20;99.90;;;;;;5049898;28;20452;-79